Meteorología y climatología de Navarra
Datos de la estación - Meteo Navarra

Estación de Tafalla GN

Altitud 430 m.


Datos desde el 14/08/2019 hasta el 15/08/2019 en horario solar
Los datos son PROVISIONALES

Anterior Página 1 de 1 Siguiente Descargar: Formato para Excel 2000 o superior   Formato csv   Formato para OpenOffice Calc
Fecha Temperatura Humedad relativa Radiación global Insolación Precipitación Vel. viento 10 m Vel. viento 10 m Dir. viento 10 m
ºC % W/m² s l/m² m/s km/h º
14/08/2019 0:00 13.9 76 0.0 0 0.0 3.2 11.6 301
14/08/2019 0:10 13.5 77 0.0 0 0.0 4.5 16.3 292
14/08/2019 0:20 14.4 73 0.0 0 0.0 4.9 17.6 306
14/08/2019 0:30 14.7 71 0.0 0 0.0 3.3 11.8 297
14/08/2019 0:40 13.7 76 0.0 0 0.0 2.2 8.0 282
14/08/2019 0:50 13.8 75 0.0 0 0.0 2.3 8.3 307
14/08/2019 1:00 14.2 72 0.0 0 0.0 3.1 11.1 318
14/08/2019 1:10 14.7 70 0.0 0 0.0 3.4 12.1 304
14/08/2019 1:20 14.5 71 0.0 0 0.0 2.9 10.4 323
14/08/2019 1:30 14.0 73 0.0 0 0.0 2.9 10.5 315
14/08/2019 1:40 14.2 71 0.0 0 0.0 3.0 10.6 343
14/08/2019 1:50 14.7 68 0.0 0 0.0 2.7 9.8 3
14/08/2019 2:00 14.1 71 0.0 0 0.0 3.2 11.5 12
14/08/2019 2:10 14.2 71 0.0 0 0.0 3.5 12.6 4
14/08/2019 2:20 14.2 71 0.0 0 0.0 2.9 10.5 322
14/08/2019 2:30 13.4 74 0.0 0 0.0 2.5 8.9 306
14/08/2019 2:40 12.8 76 0.0 0 0.0 2.3 8.1 343
14/08/2019 2:50 13.5 73 0.0 0 0.0 2.3 8.3 355
14/08/2019 3:00 13.3 76 0.0 0 0.0 3.1 11.2 1
14/08/2019 3:10 13.0 77 0.0 0 0.0 3.4 12.3 2
14/08/2019 3:20 13.0 76 0.0 0 0.0 4.2 15.1 12
14/08/2019 3:30 12.7 77 0.0 0 0.0 4.1 14.6 8
14/08/2019 3:40 12.7 77 0.0 0 0.0 3.2 11.6 358
14/08/2019 3:50 12.7 77 0.0 0 0.0 2.9 10.5 347
14/08/2019 4:00 12.5 78 0.0 0 0.0 2.5 9.1 343
14/08/2019 4:10 12.5 77 0.0 0 0.0 2.6 9.4 348
14/08/2019 4:20 12.6 77 0.0 0 0.0 3.1 11.2 355
14/08/2019 4:30 12.4 75 0.0 0 0.0 2.7 9.6 4
14/08/2019 4:40 12.5 73 0.0 0 0.0 3.2 11.6 20
14/08/2019 4:50 12.1 74 0.0 0 0.0 4.0 14.3 15
14/08/2019 5:00 11.9 74 0.0 0 0.0 3.3 11.8 7
14/08/2019 5:10 12.0 72 0.0 0 0.0 3.3 12.0 5
14/08/2019 5:20 12.0 70 0.0 0 0.0 3.7 13.3 11
14/08/2019 5:30 11.9 70 18.2 0 0.0 4.5 16.3 13
14/08/2019 5:40 12.4 69 44.7 546 0.0 4.6 16.4 11
14/08/2019 5:50 12.5 69 61.1 600 0.0 3.6 12.9 11
14/08/2019 6:00 12.6 70 83.5 600 0.0 3.8 13.8 16
14/08/2019 6:10 12.9 69 111.3 600 0.0 3.5 12.6 26
14/08/2019 6:20 13.3 65 141.1 600 0.0 2.8 9.9 25
14/08/2019 6:30 13.8 62 171.4 600 0.0 2.4 8.5 34
14/08/2019 6:40 14.0 62 203.5 600 0.0 2.6 9.3 44
14/08/2019 6:50 14.3 62 234.9 600 0.0 1.7 5.9 28
14/08/2019 7:00 14.9 62 267.3 600 0.0 1.3 4.6 331
14/08/2019 7:10 14.3 72 302.1 600 0.0 2.9 10.4 277
14/08/2019 7:20 13.8 75 335.9 600 0.0 2.6 9.4 280
14/08/2019 7:30 14.2 73 368.9 600 0.0 2.7 9.8 290
14/08/2019 7:40 14.8 69 400.9 600 0.0 2.7 9.6 284
14/08/2019 7:50 15.8 64 433.1 600 0.0 2.1 7.6 263
14/08/2019 8:00 16.5 61 464.0 600 0.0 1.6 5.8 279
14/08/2019 8:10 17.1 60 494.6 600 0.0 1.5 5.3 278
14/08/2019 8:20 17.6 58 526.2 600 0.0 2.1 7.4 257
14/08/2019 8:30 18.8 55 556.4 600 0.0 2.0 7.2 240
14/08/2019 8:40 19.3 51 584.3 600 0.0 1.4 5.0 267
14/08/2019 8:50 19.6 50 612.0 600 0.0 2.0 7.2 239
14/08/2019 9:00 20.4 46 639.2 600 0.0 1.5 5.3 249
14/08/2019 9:10 21.3 40 666.8 600 0.0 1.6 5.9 265
14/08/2019 9:20 21.7 38 693.3 600 0.0 2.9 10.3 275
14/08/2019 9:30 22.1 38 717.1 600 0.0 1.9 6.8 293
14/08/2019 9:40 22.6 36 741.3 600 0.0 2.5 9.1 282
14/08/2019 9:50 22.7 35 765.5 600 0.0 3.3 11.8 273
14/08/2019 10:00 23.4 34 786.6 600 0.0 3.1 11.1 260
14/08/2019 10:10 23.8 32 807.0 600 0.0 3.2 11.4 260
14/08/2019 10:20 24.2 31 832.0 600 0.0 3.0 10.8 264
14/08/2019 10:30 24.4 30 880.0 600 0.0 3.0 10.7 261
14/08/2019 10:40 25.7 30 843.0 600 0.0 2.7 9.8 242
14/08/2019 10:50 25.4 30 716.6 596 0.0 2.0 7.0 256
14/08/2019 11:00 25.3 31 868.0 600 0.0 3.4 12.3 305
14/08/2019 11:10 25.7 30 908.0 600 0.0 4.1 14.9 298
14/08/2019 11:20 25.7 29 915.0 600 0.0 3.7 13.5 300
14/08/2019 11:30 26.0 30 930.0 600 0.0 3.9 14.0 276
14/08/2019 11:40 26.1 30 938.0 600 0.0 3.9 13.9 286
14/08/2019 11:50 26.4 30 919.0 600 0.0 3.7 13.1 288
14/08/2019 12:00 26.6 30 921.0 600 0.0 3.1 11.3 296
14/08/2019 12:10 27.3 29 923.0 600 0.0 3.6 13.1 290
14/08/2019 12:20 27.7 28 925.0 600 0.0 4.0 14.5 279
14/08/2019 12:30 27.5 28 925.0 600 0.0 3.9 13.9 275
14/08/2019 12:40 28.2 28 926.0 600 0.0 3.6 13.0 280
14/08/2019 12:50 28.0 28 920.0 600 0.0 3.2 11.6 302
14/08/2019 13:00 28.0 28 906.0 600 0.0 3.0 10.9 309
14/08/2019 13:10 28.3 28 897.0 600 0.0 3.1 11.1 314
14/08/2019 13:20 28.4 28 890.0 600 0.0 3.5 12.4 322
14/08/2019 13:30 28.9 28 880.0 600 0.0 3.4 12.1 289
14/08/2019 13:40 29.0 28 862.0 600 0.0 2.6 9.2 335
14/08/2019 13:50 29.1 29 845.0 600 0.0 2.8 10.2 322
14/08/2019 14:00 29.4 28 829.0 600 0.0 3.5 12.5 329
14/08/2019 14:10 29.2 29 816.0 600 0.0 3.4 12.4 331
14/08/2019 14:20 29.1 30 795.5 600 0.0 3.1 11.1 352
14/08/2019 14:30 29.4 30 775.8 600 0.0 3.2 11.7 11
14/08/2019 14:40 29.2 31 756.4 600 0.0 3.3 11.9 15
14/08/2019 14:50 29.3 30 733.1 600 0.0 3.8 13.5 353
14/08/2019 15:00 29.3 30 709.6 600 0.0 3.3 11.8 340
14/08/2019 15:10 29.4 30 686.9 600 0.0 4.7 17.1 347
14/08/2019 15:20 28.7 31 662.3 600 0.0 6.7 24.2 13
14/08/2019 15:30 28.4 32 637.7 600 0.0 6.1 22.1 15
14/08/2019 15:40 28.2 33 608.7 600 0.0 6.2 22.4 5
14/08/2019 15:50 28.2 33 579.3 600 0.0 6.3 22.8 12
14/08/2019 16:00 27.8 35 550.2 600 0.0 6.7 24.1 15
14/08/2019 16:10 27.9 35 519.5 600 0.0 5.9 21.2 9
14/08/2019 16:20 27.5 37 488.5 600 0.0 6.7 23.9 6
14/08/2019 16:30 27.0 38 459.1 600 0.0 7.6 27.3 9
14/08/2019 16:40 27.0 38 426.8 600 0.0 6.5 23.5 12
14/08/2019 16:50 26.6 37 392.3 600 0.0 7.3 26.4 15
14/08/2019 17:00 26.6 37 330.0 600 0.0 6.3 22.8 13
14/08/2019 17:10 26.5 37 330.5 600 0.0 6.6 23.6 16
14/08/2019 17:20 26.5 37 304.7 600 0.0 5.8 21.0 10
14/08/2019 17:30 26.3 37 269.4 600 0.0 6.3 22.7 13
14/08/2019 17:40 25.9 38 233.7 600 0.0 6.6 23.8 7
14/08/2019 17:50 25.6 39 199.4 600 0.0 7.4 26.5 10
14/08/2019 18:00 25.3 40 168.4 600 0.0 6.8 24.6 6
14/08/2019 18:10 25.0 42 136.9 600 0.0 6.7 23.9 10
14/08/2019 18:20 24.6 44 109.1 600 0.0 6.0 21.7 14
14/08/2019 18:30 24.3 46 83.1 600 0.0 4.8 17.4 13
14/08/2019 18:40 24.0 47 54.5 464 0.0 6.4 23.2 9
14/08/2019 18:50 23.7 49 37.2 506 0.0 5.8 21.0 6
14/08/2019 19:00 23.4 50 13.7 0 0.0 5.4 19.4 6
14/08/2019 19:10 23.2 51 0.0 0 0.0 5.2 18.6 9
14/08/2019 19:20 22.9 52 0.0 0 0.0 6.0 21.7 9
14/08/2019 19:30 22.6 54 0.0 0 0.0 6.9 25.0 5
14/08/2019 19:40 22.4 56 0.0 0 0.0 6.1 22.0 4
14/08/2019 19:50 22.2 56 0.0 0 0.0 4.8 17.3 10
14/08/2019 20:00 22.0 58 0.0 0 0.0 5.9 21.1 10
14/08/2019 20:10 21.7 59 0.0 0 0.0 6.5 23.2 7
14/08/2019 20:20 21.5 59 0.0 0 0.0 7.0 25.2 8
14/08/2019 20:30 21.3 60 0.0 0 0.0 7.0 25.3 2
14/08/2019 20:40 21.0 63 0.0 0 0.0 6.7 24.1 10
14/08/2019 20:50 20.9 64 0.0 0 0.0 6.2 22.2 3
14/08/2019 21:00 20.8 65 0.0 0 0.0 5.8 20.9 2
14/08/2019 21:10 20.7 64 0.0 0 0.0 6.0 21.4 5
14/08/2019 21:20 20.6 65 0.0 0 0.0 5.3 19.1 1
14/08/2019 21:30 20.5 65 0.0 0 0.0 4.7 16.8 356
14/08/2019 21:40 20.3 65 0.0 0 0.0 4.2 15.0 350
14/08/2019 21:50 20.3 66 0.0 0 0.0 4.6 16.7 352
14/08/2019 22:00 20.2 66 0.0 0 0.0 4.8 17.3 353
14/08/2019 22:10 20.2 67 0.0 0 0.0 5.2 18.7 3
14/08/2019 22:20 20.1 69 0.0 0 0.0 4.3 15.6 2
14/08/2019 22:30 20.1 69 0.0 0 0.0 3.4 12.1 355
14/08/2019 22:40 20.0 70 0.0 0 0.0 2.7 9.5 345
14/08/2019 22:50 19.9 71 0.0 0 0.0 3.5 12.6 325
14/08/2019 23:00 19.8 72 0.0 0 0.0 2.9 10.4 327
14/08/2019 23:10 19.7 72 0.0 0 0.0 2.6 9.5 334
14/08/2019 23:20 19.6 73 0.0 0 0.0 2.3 8.3 334
14/08/2019 23:30 19.5 74 0.0 0 0.0 2.3 8.3 333
14/08/2019 23:40 19.5 74 0.0 0 0.0 3.2 11.6 329
14/08/2019 23:50 19.4 75 0.0 0 0.0 2.4 8.5 337
Anterior Página 1 de 1 Siguiente

NOTA: Tipo de datos según el color:
   - Valores diarios o 10 minutos correctos
   - Valores diarios calculados a partir de un número de datos 10 minutos menor que 144 y mayor que 120, o de un número de datos semihorarios menor que 48 y mayor que 40 (caso de las estaciones de Riegos de Navarra y del MARM)
   - Valores diez minutos estimados


Contacto        Enlaces        Aviso legal